Time;durP1;ratioP1;P1;durP2;ratioP2;P2;SDS_P1;SDS_P2;PMS_P1;PMS_P2;Temp;Humidity;BMP_temperature;BMP_pressure;BME280_temperature;BME280_humidity;BME280_pressure;Samples;Min_cycle;Max_cycle;Signal;HPM_P1;HPM_P2
2022/01/04 00:01:46;;;;;;;16.20;7.47;;;10.10;99.90;;;;;;5093752;27;38171;-76
2022/01/04 00:04:12;;;;;;;12.10;7.00;;;10.10;99.90;;;;;;5098418;27;37695;-75
2022/01/04 00:06:38;;;;;;;18.10;7.97;;;10.10;99.90;;;;;;5103983;27;39459;-76
2022/01/04 00:09:05;;;;;;;9.70;6.57;;;10.00;99.90;;;;;;5089015;27;38934;-76
2022/01/04 00:14:16;;;;;;;9.70;6.53;;;10.00;99.90;;;;;;5098565;27;37941;-75
2022/01/04 00:16:42;;;;;;;14.97;8.27;;;10.00;99.90;;;;;;5097268;27;39685;-75
2022/01/04 00:19:09;;;;;;;19.23;9.27;;;10.00;99.90;;;;;;5084415;27;38851;-76
2022/01/04 00:21:37;;;;;;;14.67;8.07;;;10.00;99.90;;;;;;5091365;28;38231;-75
2022/01/04 00:24:04;;;;;;;19.10;8.60;;;10.00;99.90;;;;;;5088814;27;38795;-75
2022/01/04 00:26:30;;;;;;;11.90;8.17;;;10.00;99.90;;;;;;5091884;27;40980;-76
2022/01/04 00:28:56;;;;;;;12.43;7.67;;;9.90;99.90;;;;;;5099227;27;38378;-75
2022/01/04 00:31:23;;;;;;;14.07;9.20;;;10.00;99.90;;;;;;5095060;27;38109;-76
2022/01/04 00:33:49;;;;;;;15.90;9.37;;;10.00;99.90;;;;;;5094916;27;37084;-76
2022/01/04 00:36:15;;;;;;;16.83;8.73;;;10.00;99.90;;;;;;5076694;28;39348;-76
2022/01/04 00:38:42;;;;;;;14.53;9.00;;;10.00;99.90;;;;;;5091689;27;40040;-75
2022/01/04 00:41:08;;;;;;;20.30;10.57;;;10.00;99.90;;;;;;5070575;28;39279;-75
2022/01/04 00:43:34;;;;;;;15.70;8.33;;;10.00;99.90;;;;;;5077732;27;39958;-74
2022/01/04 00:46:01;;;;;;;15.33;8.70;;;10.00;99.90;;;;;;5093075;27;40211;-75
2022/01/04 00:50:54;;;;;;;15.53;8.93;;;10.00;99.90;;;;;;5092370;27;38094;-75
2022/01/04 00:53:21;;;;;;;18.03;10.77;;;10.00;99.90;;;;;;5094133;27;37305;-75
2022/01/04 00:55:47;;;;;;;14.17;9.63;;;10.00;99.90;;;;;;5080876;28;40686;-75
2022/01/04 00:58:13;;;;;;;15.83;12.00;;;9.90;99.90;;;;;;5096629;27;39764;-76
2022/01/04 01:00:40;;;;;;;16.20;10.33;;;10.00;99.90;;;;;;5083230;28;38784;-75
2022/01/04 01:03:07;;;;;;;14.93;10.87;;;9.90;99.90;;;;;;5097002;27;41358;-74
2022/01/04 01:05:34;;;;;;;14.30;12.10;;;9.90;99.90;;;;;;5099203;27;39300;-74
2022/01/04 01:08:00;;;;;;;16.17;11.97;;;9.90;99.90;;;;;;5083243;28;40212;-75
2022/01/04 01:10:41;;;;;;;18.17;12.33;;;9.90;99.90;;;;;;5085482;27;37853;-75
2022/01/04 01:13:09;;;;;;;17.10;12.20;;;9.90;99.90;;;;;;5104781;27;38069;-74
2022/01/04 01:15:37;;;;;;;16.27;12.23;;;9.90;99.90;;;;;;5084398;27;40986;-75
2022/01/04 01:18:04;;;;;;;18.03;12.87;;;9.90;99.90;;;;;;5084936;28;38989;-74
2022/01/04 01:20:30;;;;;;;16.63;12.70;;;9.90;99.90;;;;;;5089135;27;40045;-75
2022/01/04 01:22:56;;;;;;;16.00;12.57;;;9.90;99.90;;;;;;5109873;27;37430;-75
2022/01/04 01:25:22;;;;;;;18.47;12.70;;;9.90;99.90;;;;;;5106410;27;38909;-75
2022/01/04 01:27:48;;;;;;;18.03;12.97;;;9.90;99.90;;;;;;5079931;28;39363;-76
2022/01/04 01:30:14;;;;;;;18.73;13.60;;;9.90;99.90;;;;;;5096956;27;38353;-74
2022/01/04 01:32:40;;;;;;;17.53;12.13;;;9.80;99.90;;;;;;5098118;27;37611;-74
2022/01/04 01:35:07;;;;;;;15.50;11.50;;;9.80;99.90;;;;;;5093973;27;39352;-75
2022/01/04 01:37:34;;;;;;;16.27;11.63;;;9.80;99.90;;;;;;5071834;27;38931;-75
2022/01/04 01:40:02;;;;;;;16.50;11.83;;;9.80;99.90;;;;;;5092993;27;37998;-75
2022/01/04 01:42:28;;;;;;;16.77;12.20;;;9.80;99.90;;;;;;5099225;27;48904;-74
2022/01/04 01:44:54;;;;;;;18.80;12.40;;;9.80;99.90;;;;;;5086751;27;42015;-74
2022/01/04 01:47:20;;;;;;;15.10;12.43;;;9.80;99.90;;;;;;5097265;27;38381;-75
2022/01/04 01:49:46;;;;;;;19.13;12.97;;;9.80;99.90;;;;;;5075999;28;38656;-75
2022/01/04 01:52:12;;;;;;;20.47;12.97;;;9.80;99.90;;;;;;5100625;27;38220;-74
2022/01/04 01:54:39;;;;;;;22.90;13.27;;;9.80;99.90;;;;;;5081473;27;40673;-75
2022/01/04 01:57:05;;;;;;;16.30;13.20;;;9.80;99.90;;;;;;5095994;27;38453;-74
2022/01/04 01:59:31;;;;;;;14.77;12.33;;;9.80;99.90;;;;;;5097723;27;37676;-74
2022/01/04 02:01:57;;;;;;;19.23;12.93;;;9.80;99.90;;;;;;5103559;27;38631;-75
2022/01/04 02:04:23;;;;;;;16.80;12.90;;;9.80;99.90;;;;;;5101902;27;38501;-74
2022/01/04 02:06:50;;;;;;;19.93;13.07;;;9.80;99.90;;;;;;5094170;27;38442;-74
2022/01/04 02:09:16;;;;;;;19.13;12.70;;;9.80;99.90;;;;;;5094125;27;38699;-75
2022/01/04 02:11:43;;;;;;;22.03;12.83;;;9.80;99.90;;;;;;5083744;28;39330;-75
2022/01/04 02:14:09;;;;;;;21.10;12.90;;;9.80;99.90;;;;;;5098179;27;38539;-75
2022/01/04 02:16:35;;;;;;;18.43;12.57;;;9.80;99.90;;;;;;5084459;27;39677;-75
2022/01/04 02:19:06;;;;;;;16.43;12.27;;;9.80;99.90;;;;;;5076198;28;38745;-75
2022/01/04 02:21:34;;;;;;;19.17;13.00;;;9.80;99.90;;;;;;5094199;27;37639;-74
2022/01/04 02:24:01;;;;;;;20.47;13.40;;;9.80;99.90;;;;;;5079641;27;40169;-74
2022/01/04 02:26:32;;;;;;;17.17;11.40;;;9.80;99.90;;;;;;5082013;27;47814;-74
2022/01/04 02:28:59;;;;;;;16.43;11.70;;;9.80;99.90;;;;;;5077856;27;37357;-75
2022/01/04 02:31:26;;;;;;;16.97;11.23;;;9.80;99.90;;;;;;5080024;27;38015;-75
2022/01/04 02:33:53;;;;;;;16.40;11.90;;;9.80;99.90;;;;;;5077776;28;39603;-74
2022/01/04 02:36:19;;;;;;;15.37;11.07;;;9.80;99.90;;;;;;5102606;27;38797;-75
2022/01/04 02:38:45;;;;;;;13.73;10.20;;;9.80;99.90;;;;;;5079800;28;37271;-75
2022/01/04 02:41:11;;;;;;;16.40;10.20;;;9.70;99.90;;;;;;5082241;27;36824;-75
2022/01/04 02:43:37;;;;;;;14.50;9.80;;;9.80;99.90;;;;;;5099763;27;38527;-76
2022/01/04 02:46:03;;;;;;;20.37;9.60;;;9.80;99.90;;;;;;5081741;27;40056;-75
2022/01/04 02:48:29;;;;;;;15.17;9.27;;;9.80;99.90;;;;;;5099187;27;38767;-75
2022/01/04 02:50:56;;;;;;;15.37;10.07;;;9.80;99.90;;;;;;5096924;27;37147;-75
2022/01/04 02:53:22;;;;;;;15.03;10.77;;;9.70;99.90;;;;;;5078996;27;37062;-75
2022/01/04 02:55:48;;;;;;;14.83;9.93;;;9.70;99.90;;;;;;5083869;28;40030;-75
2022/01/04 02:58:14;;;;;;;17.10;11.07;;;9.80;99.90;;;;;;5100826;27;38293;-76
2022/01/04 03:00:41;;;;;;;19.23;10.33;;;9.70;99.90;;;;;;5081526;27;37660;-75
2022/01/04 03:03:07;;;;;;;12.33;9.33;;;9.70;99.90;;;;;;5102116;27;40143;-75
2022/01/04 03:05:33;;;;;;;17.50;10.50;;;9.70;99.90;;;;;;5101210;27;39241;-75
2022/01/04 03:07:59;;;;;;;13.67;9.83;;;9.70;99.90;;;;;;5093743;27;38662;-75
2022/01/04 03:10:25;;;;;;;15.50;10.60;;;9.70;99.90;;;;;;5105671;27;36342;-75
2022/01/04 03:12:51;;;;;;;12.37;9.00;;;9.70;99.90;;;;;;5086978;27;39762;-75
2022/01/04 03:15:17;;;;;;;16.13;10.53;;;9.70;99.90;;;;;;5104184;27;38132;-75
2022/01/04 03:17:43;;;;;;;16.27;10.27;;;9.70;99.90;;;;;;5105332;27;38731;-75
2022/01/04 03:20:10;;;;;;;17.70;11.73;;;9.70;99.90;;;;;;5092448;27;38697;-75
2022/01/04 03:22:36;;;;;;;19.70;10.70;;;9.70;99.90;;;;;;5083053;27;39231;-74
2022/01/04 03:25:03;;;;;;;16.80;10.43;;;9.70;99.90;;;;;;5087032;27;39048;-74
2022/01/04 03:27:29;;;;;;;16.77;10.93;;;9.70;99.90;;;;;;5110935;27;37852;-75
2022/01/04 03:29:55;;;;;;;15.97;11.20;;;9.70;99.90;;;;;;5088557;27;37105;-75
2022/01/04 03:32:22;;;;;;;15.27;11.20;;;9.60;99.90;;;;;;5096591;27;39370;-75
2022/01/04 03:34:48;;;;;;;17.37;11.57;;;9.60;99.90;;;;;;5084772;28;38866;-75
2022/01/04 03:37:14;;;;;;;17.13;11.33;;;9.60;99.90;;;;;;5078154;27;39596;-75
2022/01/04 03:39:40;;;;;;;13.07;10.23;;;9.60;99.90;;;;;;5103282;27;37255;-75
2022/01/04 03:42:06;;;;;;;18.00;11.30;;;9.60;99.90;;;;;;5080807;27;39273;-75
2022/01/04 03:44:33;;;;;;;16.83;11.27;;;9.60;99.90;;;;;;5089808;28;39558;-75
2022/01/04 03:46:59;;;;;;;11.57;9.60;;;9.50;99.90;;;;;;5106773;27;38807;-75
2022/01/04 03:49:25;;;;;;;14.17;10.47;;;9.50;99.90;;;;;;5080770;27;38222;-74
2022/01/04 03:51:51;;;;;;;13.23;10.43;;;9.50;99.90;;;;;;5083453;27;40404;-74
2022/01/04 03:54:19;;;;;;;14.87;10.43;;;9.50;99.90;;;;;;5097875;27;39485;-75
2022/01/04 03:56:45;;;;;;;15.67;10.87;;;9.50;99.90;;;;;;5084136;27;40168;-74
2022/01/04 03:59:12;;;;;;;17.07;11.90;;;9.40;99.90;;;;;;5102395;27;37383;-75
2022/01/04 04:01:38;;;;;;;15.67;12.33;;;9.40;99.90;;;;;;5093152;27;38644;-75
2022/01/04 04:04:04;;;;;;;15.23;11.80;;;9.40;99.90;;;;;;5077645;27;40176;-75
2022/01/04 04:06:30;;;;;;;17.13;12.70;;;9.40;99.90;;;;;;5095340;27;39158;-74
2022/01/04 04:08:57;;;;;;;19.80;12.87;;;9.40;99.90;;;;;;5095839;27;37410;-75
2022/01/04 04:11:26;;;;;;;14.67;12.47;;;9.40;99.90;;;;;;5090588;27;41049;-75
2022/01/04 04:13:52;;;;;;;16.23;12.83;;;9.40;99.90;;;;;;5084964;28;39201;-75
2022/01/04 04:16:19;;;;;;;15.80;12.80;;;9.40;99.90;;;;;;5099581;27;38283;-75
2022/01/04 04:18:45;;;;;;;19.67;12.70;;;9.50;99.90;;;;;;5083085;27;39247;-75
2022/01/04 04:21:11;;;;;;;18.40;12.53;;;9.50;99.90;;;;;;5081194;27;39481;-74
2022/01/04 04:23:37;;;;;;;17.37;11.53;;;9.50;99.90;;;;;;5084700;27;39065;-75
2022/01/04 04:26:04;;;;;;;18.10;12.97;;;9.50;99.90;;;;;;5094635;27;38145;-75
2022/01/04 04:28:30;;;;;;;15.83;10.53;;;9.50;99.90;;;;;;5093054;27;39356;-74
2022/01/04 04:30:56;;;;;;;19.57;12.27;;;9.50;99.90;;;;;;5089601;27;40303;-75
2022/01/04 04:33:23;;;;;;;17.00;12.07;;;9.50;99.90;;;;;;5105111;27;38713;-75
2022/01/04 04:35:49;;;;;;;16.17;11.23;;;9.50;99.90;;;;;;5091211;27;38907;-75
2022/01/04 04:38:15;;;;;;;17.33;11.97;;;9.60;99.90;;;;;;5094411;27;38905;-74
2022/01/04 04:40:41;;;;;;;14.63;10.37;;;9.60;99.90;;;;;;5116022;27;38946;-75
2022/01/04 04:43:07;;;;;;;17.53;10.97;;;9.60;99.90;;;;;;5089036;28;38842;-75
2022/01/04 04:45:33;;;;;;;16.37;10.40;;;9.60;99.90;;;;;;5113484;27;38359;-74
2022/01/04 04:47:59;;;;;;;15.07;9.57;;;9.60;99.90;;;;;;5089177;27;38495;-75
2022/01/04 04:50:25;;;;;;;13.77;10.27;;;9.60;99.90;;;;;;5109830;27;38905;-75
2022/01/04 04:52:52;;;;;;;15.23;10.13;;;9.60;99.90;;;;;;5106165;27;38390;-75
2022/01/04 04:55:18;;;;;;;14.90;10.70;;;9.50;99.90;;;;;;5106379;27;37998;-75
2022/01/04 04:57:45;;;;;;;13.17;10.37;;;9.50;99.90;;;;;;5089778;27;39238;-75
2022/01/04 05:00:12;;;;;;;15.50;11.30;;;9.50;99.90;;;;;;5111993;27;39129;-75
2022/01/04 05:02:38;;;;;;;17.83;11.07;;;9.50;99.90;;;;;;5090022;27;37059;-75
2022/01/04 05:05:04;;;;;;;15.83;11.33;;;9.50;99.90;;;;;;5101445;27;37928;-74
2022/01/04 05:07:31;;;;;;;18.20;11.87;;;9.40;99.90;;;;;;5108860;27;38301;-74
2022/01/04 05:09:57;;;;;;;16.77;12.83;;;9.40;99.90;;;;;;5100811;27;38488;-74
2022/01/04 05:12:23;;;;;;;17.07;13.17;;;9.40;99.90;;;;;;5105506;27;37523;-73
2022/01/04 05:14:49;;;;;;;17.87;14.73;;;9.30;99.90;;;;;;5105090;27;38197;-74
2022/01/04 05:17:16;;;;;;;20.53;15.47;;;9.30;99.90;;;;;;5102772;27;38360;-75
2022/01/04 05:19:42;;;;;;;26.00;16.43;;;9.20;99.90;;;;;;5083683;27;37843;-74
2022/01/04 05:22:08;;;;;;;20.63;15.00;;;9.20;99.90;;;;;;5104198;27;38106;-73
2022/01/04 05:24:34;;;;;;;24.57;16.53;;;9.10;99.90;;;;;;5107936;27;38003;-74
2022/01/04 05:27:01;;;;;;;24.80;18.20;;;9.10;99.90;;;;;;5094763;27;35980;-74
2022/01/04 05:29:27;;;;;;;23.27;18.00;;;9.10;99.90;;;;;;5077820;28;47433;-74
2022/01/04 05:31:53;;;;;;;23.90;16.87;;;9.10;99.90;;;;;;5097045;27;38483;-74
2022/01/04 05:34:19;;;;;;;23.53;16.97;;;9.10;99.90;;;;;;5078956;27;38772;-74
2022/01/04 05:36:45;;;;;;;23.20;17.20;;;9.10;99.90;;;;;;5100897;27;35861;-73
2022/01/04 05:39:11;;;;;;;27.83;19.27;;;9.10;99.90;;;;;;5093793;27;39049;-75
2022/01/04 05:41:38;;;;;;;25.17;17.57;;;9.10;99.90;;;;;;5094747;27;38257;-74
2022/01/04 05:44:04;;;;;;;25.40;16.90;;;9.10;99.90;;;;;;5079546;28;38625;-74
2022/01/04 05:46:30;;;;;;;23.43;18.27;;;9.00;99.90;;;;;;5095545;27;38244;-75
2022/01/04 05:48:56;;;;;;;28.40;17.67;;;9.00;99.90;;;;;;5085675;27;38394;-74
2022/01/04 05:51:22;;;;;;;22.13;15.90;;;9.00;99.90;;;;;;5091843;27;38272;-74
2022/01/04 05:53:48;;;;;;;23.87;16.07;;;9.00;99.90;;;;;;5075226;28;39125;-74
2022/01/04 05:56:14;;;;;;;30.33;17.63;;;9.00;99.90;;;;;;5084113;27;38006;-73
2022/01/04 05:58:41;;;;;;;23.40;17.97;;;9.00;99.90;;;;;;5105054;27;39653;-74
2022/01/04 06:01:07;;;;;;;25.87;19.30;;;9.00;99.90;;;;;;5082288;27;38207;-74
2022/01/04 06:03:33;;;;;;;21.17;15.57;;;9.00;99.90;;;;;;5109144;27;38035;-74
2022/01/04 06:05:59;;;;;;;28.03;17.83;;;8.90;99.90;;;;;;5107079;27;37350;-74
2022/01/04 06:08:32;;;;;;;23.73;16.07;;;8.90;99.90;;;;;;5083204;28;39898;-74
2022/01/04 06:10:59;;;;;;;23.20;16.20;;;8.90;99.90;;;;;;5090851;27;38574;-74
2022/01/04 06:16:10;;;;;;;30.67;17.17;;;8.90;99.90;;;;;;5093455;27;39213;-73
2022/01/04 06:18:37;;;;;;;23.77;17.53;;;8.90;99.90;;;;;;5092991;27;38259;-74
2022/01/04 06:21:05;;;;;;;26.37;18.33;;;8.90;99.90;;;;;;5088109;27;38723;-73
2022/01/04 06:23:31;;;;;;;25.13;18.33;;;8.90;99.90;;;;;;5092309;27;38592;-74
2022/01/04 06:25:57;;;;;;;26.27;18.47;;;8.90;99.90;;;;;;5098996;27;38007;-74
2022/01/04 06:28:23;;;;;;;25.67;18.10;;;8.90;99.90;;;;;;5082374;27;39298;-74
2022/01/04 06:30:51;;;;;;;27.57;17.90;;;8.90;99.90;;;;;;5095798;27;38934;-74
2022/01/04 06:33:21;;;;;;;27.63;18.60;;;8.90;99.90;;;;;;5099450;27;37721;-74
2022/01/04 06:35:48;;;;;;;33.23;20.03;;;8.80;99.90;;;;;;5105672;27;37256;-74
2022/01/04 06:38:15;;;;;;;35.70;20.17;;;8.90;99.90;;;;;;5105948;27;39604;-74
2022/01/04 06:40:41;;;;;;;30.87;20.17;;;8.90;99.90;;;;;;5083467;27;38342;-74
2022/01/04 06:43:07;;;;;;;33.23;21.30;;;8.90;99.90;;;;;;5085656;27;39136;-73
2022/01/04 06:45:33;;;;;;;29.23;18.03;;;8.90;99.90;;;;;;5100516;27;38418;-74
2022/01/04 06:47:59;;;;;;;33.33;20.70;;;8.90;99.90;;;;;;5075621;28;40706;-74
2022/01/04 06:50:25;;;;;;;35.77;19.90;;;8.90;99.90;;;;;;5098949;27;38371;-74
2022/01/04 06:52:51;;;;;;;30.20;20.07;;;8.90;99.90;;;;;;5084236;27;39656;-75
2022/01/04 06:55:18;;;;;;;30.87;21.00;;;8.90;99.90;;;;;;5102262;27;37504;-74
2022/01/04 06:57:44;;;;;;;26.67;18.87;;;9.00;99.90;;;;;;5102634;27;39535;-74
2022/01/04 07:00:11;;;;;;;33.53;19.83;;;9.00;99.90;;;;;;5095279;27;38627;-74
2022/01/04 07:02:37;;;;;;;26.97;18.37;;;9.00;99.90;;;;;;5098593;27;37835;-74
2022/01/04 07:05:04;;;;;;;30.43;18.87;;;8.90;99.90;;;;;;5073643;27;38100;-74
2022/01/04 07:07:30;;;;;;;31.60;20.57;;;8.90;99.90;;;;;;5093469;27;47995;-74
2022/01/04 07:09:56;;;;;;;29.27;19.03;;;8.90;99.90;;;;;;5094338;27;38473;-74
2022/01/04 07:12:22;;;;;;;31.97;19.53;;;8.90;99.90;;;;;;5093380;27;38685;-74
2022/01/04 07:14:48;;;;;;;29.30;18.87;;;9.00;99.90;;;;;;5081465;28;38558;-74
2022/01/04 07:17:14;;;;;;;26.10;18.20;;;8.90;99.90;;;;;;5076303;28;39335;-74
2022/01/04 07:19:40;;;;;;;30.03;18.03;;;8.90;99.90;;;;;;5095588;27;39389;-73
2022/01/04 07:22:07;;;;;;;27.87;18.50;;;8.90;99.90;;;;;;5092489;27;37995;-74
2022/01/04 07:24:33;;;;;;;28.83;19.40;;;8.90;99.90;;;;;;5098654;27;36971;-74
2022/01/04 07:26:59;;;;;;;28.73;17.03;;;8.90;99.90;;;;;;5082902;27;38633;-73
2022/01/04 07:29:25;;;;;;;24.80;17.50;;;8.90;99.90;;;;;;5077917;27;39087;-74
2022/01/04 07:31:51;;;;;;;24.27;16.93;;;8.90;99.90;;;;;;5093006;27;38872;-73
2022/01/04 07:34:17;;;;;;;26.47;16.60;;;8.90;99.90;;;;;;5097113;27;37264;-74
2022/01/04 07:36:43;;;;;;;35.83;18.53;;;8.90;99.90;;;;;;5080967;28;40415;-73
2022/01/04 07:39:09;;;;;;;23.60;15.77;;;8.90;99.90;;;;;;5092287;27;38889;-73
2022/01/04 07:41:36;;;;;;;31.33;18.20;;;9.00;99.90;;;;;;5077602;27;39733;-74
2022/01/04 07:44:02;;;;;;;23.53;16.97;;;9.00;99.90;;;;;;5087621;27;38143;-74
2022/01/04 07:46:28;;;;;;;23.07;16.33;;;9.00;99.90;;;;;;5076394;27;39742;-74
2022/01/04 07:48:54;;;;;;;28.67;15.77;;;9.00;99.90;;;;;;5093418;27;39147;-74
2022/01/04 07:51:20;;;;;;;25.67;15.53;;;9.00;99.90;;;;;;5091155;27;39068;-74
2022/01/04 07:53:46;;;;;;;28.77;16.60;;;9.00;99.90;;;;;;5097027;27;38134;-73
2022/01/04 07:56:12;;;;;;;22.70;14.87;;;9.00;99.90;;;;;;5095202;27;39574;-74
2022/01/04 07:58:39;;;;;;;22.47;15.80;;;9.00;99.90;;;;;;5085136;28;40185;-74
2022/01/04 08:01:05;;;;;;;25.70;15.40;;;9.00;99.90;;;;;;5094121;27;36497;-73
2022/01/04 08:03:31;;;;;;;21.47;13.90;;;9.10;99.90;;;;;;5076376;27;36292;-76
2022/01/04 08:05:57;;;;;;;30.47;18.30;;;9.10;99.90;;;;;;5080704;28;39336;-75
2022/01/04 08:08:23;;;;;;;26.53;16.77;;;9.10;99.90;;;;;;5079606;28;39164;-74
2022/01/04 08:10:51;;;;;;;35.10;18.13;;;9.10;99.90;;;;;;5075741;27;37852;-74
2022/01/04 08:13:17;;;;;;;32.50;16.67;;;9.00;99.90;;;;;;5094842;27;38089;-74
2022/01/04 08:15:43;;;;;;;25.30;14.43;;;9.00;99.90;;;;;;5083270;28;40569;-74
2022/01/04 08:18:10;;;;;;;23.17;13.23;;;9.00;99.90;;;;;;5083024;27;39055;-74
2022/01/04 08:20:36;;;;;;;17.60;9.63;;;8.90;99.90;;;;;;5083989;28;39132;-74
2022/01/04 08:23:02;;;;;;;15.20;9.67;;;8.90;99.90;;;;;;5081798;27;38259;-74
2022/01/04 08:25:30;;;;;;;23.63;11.53;;;8.80;99.90;;;;;;5081742;28;47287;-74
2022/01/04 08:27:57;;;;;;;21.03;13.67;;;8.90;99.90;;;;;;5079764;27;38934;-73
2022/01/04 08:30:23;;;;;;;18.97;13.37;;;8.90;99.90;;;;;;5102688;27;38606;-74
2022/01/04 08:32:51;;;;;;;22.27;15.13;;;8.90;99.90;;;;;;5107441;27;38182;-74
2022/01/04 08:35:17;;;;;;;21.60;14.57;;;8.90;99.90;;;;;;5109821;27;38794;-73
2022/01/04 08:37:43;;;;;;;22.53;16.03;;;8.90;99.90;;;;;;5093138;27;39162;-74
2022/01/04 08:40:10;;;;;;;28.97;17.27;;;8.90;99.90;;;;;;5097636;27;39225;-74
2022/01/04 08:42:37;;;;;;;21.20;15.13;;;8.90;99.90;;;;;;5092960;27;37837;-73
2022/01/04 08:45:06;;;;;;;28.13;16.10;;;9.00;99.90;;;;;;5103690;27;39677;-74
2022/01/04 08:47:32;;;;;;;22.00;15.23;;;9.00;99.90;;;;;;5094120;27;47804;-75
2022/01/04 08:49:59;;;;;;;21.30;14.57;;;9.00;99.90;;;;;;5102098;27;40171;-75
2022/01/04 08:52:27;;;;;;;27.37;16.73;;;9.00;99.90;;;;;;5079255;27;37931;-75
2022/01/04 08:54:53;;;;;;;29.80;16.50;;;9.00;99.90;;;;;;5086661;27;40011;-75
2022/01/04 08:57:19;;;;;;;31.43;17.93;;;9.10;99.90;;;;;;5086553;27;39682;-74
2022/01/04 08:59:47;;;;;;;32.40;17.73;;;9.10;99.90;;;;;;5093904;27;38999;-75
2022/01/04 09:02:13;;;;;;;30.17;17.40;;;9.10;99.90;;;;;;5077675;27;37829;-74
2022/01/04 09:04:39;;;;;;;29.37;17.90;;;9.10;99.90;;;;;;5098210;27;39548;-74
2022/01/04 09:07:05;;;;;;;32.10;20.77;;;9.10;99.90;;;;;;5085916;27;39677;-75
2022/01/04 09:09:31;;;;;;;29.50;18.17;;;9.10;99.90;;;;;;5116849;27;37522;-75
2022/01/04 09:11:57;;;;;;;28.90;17.60;;;9.10;99.90;;;;;;5111437;27;38282;-76
2022/01/04 09:14:28;;;;;;;28.37;19.00;;;9.10;99.90;;;;;;5102187;27;39875;-75
2022/01/04 09:19:39;;;;;;;25.83;16.77;;;9.20;99.90;;;;;;5106220;27;48561;-74
2022/01/04 09:22:05;;;;;;;31.63;16.50;;;9.20;99.90;;;;;;5098756;27;37105;-75
2022/01/04 09:24:31;;;;;;;22.27;14.43;;;9.20;99.90;;;;;;5102947;27;38560;-75
2022/01/04 09:26:58;;;;;;;19.63;13.60;;;9.20;99.90;;;;;;5102984;27;39556;-75
2022/01/04 09:29:24;;;;;;;23.50;14.57;;;9.20;99.90;;;;;;5099815;27;36973;-75
2022/01/04 09:31:54;;;;;;;22.03;11.73;;;9.10;99.90;;;;;;5107272;27;37472;-76
2022/01/04 09:34:20;;;;;;;18.53;11.23;;;9.20;99.90;;;;;;5098194;27;40657;-75
2022/01/04 09:36:46;;;;;;;17.80;8.77;;;9.10;99.90;;;;;;5090511;28;37579;-75
2022/01/04 09:39:20;;;;;;;19.10;8.60;;;9.10;99.90;;;;;;5107419;27;38624;-75
2022/01/04 09:41:48;;;;;;;19.80;8.23;;;9.20;99.90;;;;;;5090764;28;37487;-73
2022/01/04 09:44:14;;;;;;;17.00;8.23;;;9.20;99.90;;;;;;5084815;27;37811;-75
2022/01/04 09:46:41;;;;;;;18.13;6.73;;;9.30;99.90;;;;;;5104405;27;38626;-75
2022/01/04 09:49:09;;;;;;;16.17;7.30;;;9.30;99.90;;;;;;5102073;27;37949;-75
2022/01/04 09:51:38;;;;;;;21.93;9.10;;;9.30;99.90;;;;;;5100345;27;38480;-75
2022/01/04 09:54:04;;;;;;;21.37;6.77;;;9.30;99.90;;;;;;5101438;27;38908;-75
2022/01/04 09:56:30;;;;;;;23.20;8.40;;;9.30;99.90;;;;;;5104131;27;38738;-75
2022/01/04 09:58:57;;;;;;;18.73;6.97;;;9.20;99.90;;;;;;5105365;27;38090;-75
2022/01/04 10:01:29;;;;;;;17.77;7.37;;;9.30;99.90;;;;;;5080054;28;38089;-75
2022/01/04 10:03:55;;;;;;;15.33;5.00;;;9.20;99.90;;;;;;5091724;27;37631;-75
2022/01/04 10:06:21;;;;;;;19.67;5.33;;;9.20;99.90;;;;;;5085181;27;39333;-76
2022/01/04 10:09:00;;;;;;;12.03;3.47;;;9.20;99.90;;;;;;5062783;28;20128;-75
2022/01/04 10:11:34;;;;;;;18.70;3.97;;;9.10;99.90;;;;;;5079297;28;38343;-75
2022/01/04 10:14:21;;;;;;;19.20;4.10;;;9.00;99.90;;;;;;5056533;28;37998;-75
2022/01/04 10:16:55;;;;;;;11.23;3.07;;;9.00;99.90;;;;;;5051180;28;47284;-75
2022/01/04 10:19:29;;;;;;;14.73;3.13;;;9.00;99.90;;;;;;5065780;28;39164;-75
2022/01/04 10:22:15;;;;;;;10.00;2.73;;;9.00;99.90;;;;;;5069803;28;37939;-75
2022/01/04 10:24:44;;;;;;;18.77;2.83;;;9.00;99.90;;;;;;5064798;28;47436;-75
2022/01/04 10:27:25;;;;;;;13.90;2.87;;;9.00;99.90;;;;;;5062236;28;40225;-75
2022/01/04 10:30:25;;;;;;;14.57;3.23;;;9.00;99.90;;;;;;5081795;28;38576;-75
2022/01/04 10:32:51;;;;;;;19.57;3.87;;;9.00;99.90;;;;;;5069803;28;47240;-75
2022/01/04 10:35:23;;;;;;;16.70;3.37;;;9.00;99.90;;;;;;5065943;28;40393;-74
2022/01/04 10:37:50;;;;;;;16.70;2.60;;;9.00;99.90;;;;;;5070376;28;38582;-75
2022/01/04 10:40:17;;;;;;;16.17;3.00;;;9.00;99.90;;;;;;5079726;28;38540;-75
2022/01/04 10:42:43;;;;;;;20.27;3.10;;;9.00;99.90;;;;;;5056482;28;38042;-75
2022/01/04 10:45:30;;;;;;;15.17;2.93;;;9.00;99.90;;;;;;5075783;28;38583;-75
2022/01/04 10:48:18;;;;;;;13.93;3.83;;;9.00;99.90;;;;;;5066537;28;39960;-75
2022/01/04 10:51:07;;;;;;;14.47;3.70;;;9.10;99.90;;;;;;5071819;28;47900;-75
2022/01/04 10:53:40;;;;;;;17.77;3.90;;;9.10;99.90;;;;;;5041433;28;47403;-74
2022/01/04 10:56:09;;;;;;;18.80;3.73;;;9.10;99.90;;;;;;5076143;28;40069;-75
2022/01/04 10:58:47;;;;;;;12.20;3.27;;;9.10;99.90;;;;;;5086311;28;38460;-75
2022/01/04 11:01:22;;;;;;;19.07;4.00;;;9.20;99.90;;;;;;5084374;28;38308;-74
2022/01/04 11:03:53;;;;;;;12.37;3.37;;;9.20;99.90;;;;;;5081145;28;36664;-74
2022/01/04 11:06:30;;;;;;;19.40;4.17;;;9.20;99.90;;;;;;5085846;27;39406;-74
2022/01/04 11:08:57;;;;;;;21.63;5.43;;;9.20;99.90;;;;;;5085200;27;38642;-74
2022/01/04 11:11:23;;;;;;;18.87;5.77;;;9.20;99.90;;;;;;5100630;27;38505;-74
2022/01/04 11:13:53;;;;;;;23.10;5.27;;;9.20;99.90;;;;;;5097187;27;37020;-74
2022/01/04 11:16:22;;;;;;;26.57;6.03;;;9.20;99.90;;;;;;5080059;27;37795;-75
2022/01/04 11:18:52;;;;;;;23.53;5.97;;;9.20;99.90;;;;;;5076883;27;39169;-74
2022/01/04 11:21:24;;;;;;;29.83;6.50;;;9.10;99.90;;;;;;5099781;27;38385;-75
2022/01/04 11:23:52;;;;;;;24.17;5.18;;;9.10;99.90;;;;;;5102808;27;37826;-75
2022/01/04 11:26:20;;;;;;;16.70;4.27;;;9.00;99.90;;;;;;5083350;27;39589;-75
2022/01/04 11:28:48;;;;;;;23.80;4.10;;;8.90;99.90;;;;;;5083701;27;39631;-73
2022/01/04 11:31:35;;;;;;;8.90;2.80;;;8.90;99.90;;;;;;5106811;27;39092;-76
2022/01/04 11:34:04;;;;;;;13.27;2.40;;;8.80;99.90;;;;;;5095050;27;37859;-75
2022/01/04 11:36:34;;;;;;;15.23;2.20;;;8.80;99.90;;;;;;5100949;27;38982;-76
2022/01/04 11:39:00;;;;;;;14.90;2.17;;;8.80;99.90;;;;;;5084937;27;39121;-75
2022/01/04 11:41:33;;;;;;;11.40;2.30;;;8.80;99.90;;;;;;5081662;27;38366;-75
2022/01/04 11:44:23;;;;;;;13.23;2.78;;;8.80;99.90;;;;;;5090537;27;38744;-75
2022/01/04 11:47:11;;;;;;;28.20;3.00;;;8.80;99.90;;;;;;5102509;27;47124;-75
2022/01/04 11:49:40;;;;;;;14.90;3.13;;;8.80;99.90;;;;;;5098280;27;49068;-75
2022/01/04 11:52:30;;;;;;;13.77;2.73;;;8.80;99.90;;;;;;5084070;27;37536;-74
2022/01/04 11:55:22;;;;;;;8.00;2.10;;;8.80;99.90;;;;;;5094070;27;36560;-74
2022/01/04 11:57:50;;;;;;;11.90;2.20;;;8.80;99.90;;;;;;5093922;27;48858;-75
2022/01/04 12:00:28;;;;;;;13.77;2.20;;;8.80;99.90;;;;;;5086721;27;39354;-75
2022/01/04 12:03:07;;;;;;;11.97;1.50;;;8.80;99.90;;;;;;5089759;27;37324;-75
2022/01/04 12:05:36;;;;;;;15.63;2.07;;;8.80;99.90;;;;;;5081824;27;51257;-75
2022/01/04 12:08:15;;;;;;;10.90;1.90;;;8.60;99.90;;;;;;5082045;28;38893;-75
2022/01/04 12:10:41;;;;;;;10.33;2.10;;;8.60;99.90;;;;;;5061601;28;47380;-74
2022/01/04 12:13:10;;;;;;;6.17;1.60;;;8.70;99.90;;;;;;5080843;28;38331;-75
2022/01/04 12:15:36;;;;;;;8.93;1.40;;;8.70;99.90;;;;;;5072470;28;37179;-75
2022/01/04 12:18:02;;;;;;;6.73;1.03;;;8.60;99.90;;;;;;5081621;28;39204;-75
2022/01/04 12:20:44;;;;;;;7.47;1.13;;;8.60;99.90;;;;;;5062359;28;39175;-75
2022/01/04 12:23:46;;;;;;;7.53;1.40;;;8.60;99.90;;;;;;5073305;28;37898;-75
2022/01/04 12:26:21;;;;;;;7.15;1.15;;;8.60;99.90;;;;;;5077772;28;37234;-75
2022/01/04 12:28:58;;;;;;;6.30;1.30;;;8.70;99.90;;;;;;5074351;28;38968;-75
2022/01/04 12:31:28;;;;;;;5.40;1.20;;;8.80;99.90;;;;;;5075631;27;40011;-74
2022/01/04 12:34:26;;;;;;;13.47;1.80;;;8.70;99.90;;;;;;5052845;28;38449;-74
2022/01/04 12:36:53;;;;;;;12.27;1.40;;;8.70;99.90;;;;;;5053785;28;45420;-75
2022/01/04 12:39:22;;;;;;;8.13;1.00;;;8.80;99.90;;;;;;5056061;28;40944;-75
2022/01/04 12:41:51;;;;;;;6.07;1.10;;;8.80;99.90;;;;;;5079264;28;38443;-74
2022/01/04 12:44:28;;;;;;;10.03;1.70;;;8.80;99.90;;;;;;5075774;28;37975;-74
2022/01/04 12:46:56;;;;;;;6.60;1.30;;;8.80;99.90;;;;;;5074356;28;37281;-74
2022/01/04 12:49:24;;;;;;;12.47;2.27;;;8.70;99.90;;;;;;5077633;28;37655;-74
2022/01/04 12:51:53;;;;;;;5.87;1.33;;;8.80;99.90;;;;;;5073103;27;37320;-75
2022/01/04 12:54:25;;;;;;;7.17;1.20;;;8.80;99.90;;;;;;5074152;28;39041;-75
2022/01/04 12:56:51;;;;;;;5.28;0.95;;;8.90;99.90;;;;;;5073644;28;37021;-73